createdAt,value
2022-08-29T00:00:40.898Z,110.43
2022-08-29T00:03:30.960Z,106.63
2022-08-29T00:06:19.512Z,106.20
2022-08-29T00:09:08.073Z,104.20
2022-08-29T00:11:56.509Z,105.15
2022-08-29T00:14:44.827Z,105.18
2022-08-29T00:17:33.917Z,102.97
2022-08-29T00:20:30.335Z,103.43
2022-08-29T00:23:22.823Z,102.55
2022-08-29T00:26:11.240Z,104.85
2022-08-29T00:28:59.569Z,101.18
2022-08-29T00:31:49.039Z,102.70
2022-08-29T00:34:37.450Z,102.13
2022-08-29T00:37:27.244Z,101.25
2022-08-29T00:40:20.659Z,102.05
2022-08-29T00:43:10.532Z,102.10
2022-08-29T00:46:06.947Z,101.50
2022-08-29T00:48:58.032Z,101.25
2022-08-29T00:51:48.170Z,101.35
2022-08-29T00:54:38.243Z,101.22
2022-08-29T00:57:30.440Z,96.80
2022-08-29T01:00:19.537Z,95.43
2022-08-29T01:03:08.898Z,95.30
2022-08-29T01:05:57.399Z,95.10
2022-08-29T01:08:46.026Z,93.38
2022-08-29T01:11:53.591Z,92.45
2022-08-29T01:14:48.290Z,92.85
2022-08-29T01:17:44.274Z,93.57
2022-08-29T01:20:40.366Z,91.20
2022-08-29T01:23:33.770Z,91.35
2022-08-29T01:26:24.308Z,90.97
2022-08-29T01:29:13.001Z,92.03
2022-08-29T01:32:02.180Z,90.40
2022-08-29T01:34:50.679Z,91.78
2022-08-29T01:37:43.643Z,91.20
2022-08-29T01:40:32.167Z,92.68
2022-08-29T01:43:23.202Z,92.63
2022-08-29T01:46:13.224Z,90.20
2022-08-29T01:49:03.782Z,89.95
2022-08-29T01:51:52.744Z,90.65
2022-08-29T01:54:42.255Z,89.68
2022-08-29T01:57:30.602Z,88.30
2022-08-29T02:00:20.476Z,88.65
2022-08-29T02:03:08.863Z,86.15
2022-08-29T02:05:58.801Z,84.47
2022-08-29T02:08:47.469Z,85.22
2022-08-29T02:11:36.581Z,85.20
2022-08-29T02:14:26.475Z,85.45
2022-08-29T02:17:17.445Z,84.47
2022-08-29T02:20:09.259Z,83.93
2022-08-29T02:22:57.539Z,83.28
2022-08-29T02:25:47.682Z,83.45
2022-08-29T02:28:38.498Z,84.00
2022-08-29T02:31:26.924Z,84.13
2022-08-29T02:34:16.769Z,83.15
2022-08-29T02:37:06.046Z,82.55
2022-08-29T02:39:54.835Z,82.72
2022-08-29T02:42:43.167Z,83.72
2022-08-29T02:45:32.000Z,81.63
2022-08-29T02:48:21.295Z,84.05
2022-08-29T02:51:11.056Z,83.88
2022-08-29T02:54:00.481Z,83.53
2022-08-29T02:56:48.788Z,83.57
2022-08-29T02:59:37.300Z,83.50
2022-08-29T03:02:25.960Z,82.22
2022-08-29T03:05:15.176Z,81.75
2022-08-29T03:08:07.990Z,82.28
2022-08-29T03:10:56.608Z,82.03
2022-08-29T03:13:45.370Z,82.43
2022-08-29T03:16:34.279Z,79.53
2022-08-29T03:19:23.015Z,80.45
2022-08-29T03:22:11.394Z,79.97
2022-08-29T03:25:03.257Z,81.20
2022-08-29T03:27:52.950Z,82.40
2022-08-29T03:30:41.439Z,85.18
2022-08-29T03:33:29.732Z,86.70
2022-08-29T03:36:18.224Z,89.95
2022-08-29T03:39:06.509Z,90.93
2022-08-29T03:41:56.247Z,93.57
2022-08-29T03:44:44.677Z,96.55
2022-08-29T03:47:33.108Z,97.53
2022-08-29T03:50:24.599Z,98.85
2022-08-29T03:53:13.046Z,97.40
2022-08-29T03:56:01.450Z,100.70
2022-08-29T03:58:53.349Z,100.15
2022-08-29T04:01:41.980Z,100.60
2022-08-29T04:04:47.705Z,99.55
2022-08-29T04:07:40.238Z,101.43
2022-08-29T04:10:31.075Z,103.75
2022-08-29T04:13:19.552Z,103.53
2022-08-29T04:16:12.574Z,102.60
2022-08-29T04:19:00.972Z,103.10
2022-08-29T04:21:50.273Z,103.28
2022-08-29T04:24:38.765Z,107.72
2022-08-29T04:27:30.200Z,106.50
2022-08-29T04:30:21.786Z,109.20
2022-08-29T04:33:22.216Z,107.05
2022-08-29T04:36:14.867Z,107.53
2022-08-29T04:39:03.969Z,107.20
2022-08-29T04:41:52.754Z,107.32
2022-08-29T04:44:41.192Z,107.57
2022-08-29T04:47:29.595Z,110.43
2022-08-29T04:50:22.900Z,108.60
2022-08-29T04:53:12.767Z,109.57
2022-08-29T04:56:03.965Z,107.93
2022-08-29T04:58:52.723Z,107.78
2022-08-29T05:01:42.408Z,106.95
2022-08-29T05:04:30.845Z,105.75
2022-08-29T05:07:21.905Z,107.82
2022-08-29T05:10:13.611Z,106.90
2022-08-29T05:13:02.031Z,107.18
2022-08-29T05:15:50.987Z,106.63
2022-08-29T05:18:40.274Z,105.07
2022-08-29T05:21:34.053Z,104.75
2022-08-29T05:24:25.079Z,102.88
2022-08-29T05:27:17.847Z,99.75
2022-08-29T05:30:07.391Z,102.60
2022-08-29T05:32:55.850Z,103.20
2022-08-29T05:35:45.125Z,103.30
2022-08-29T05:38:33.536Z,103.65
2022-08-29T05:41:23.345Z,102.97
2022-08-29T05:44:11.678Z,102.05
2022-08-29T05:47:00.688Z,100.82
2022-08-29T05:49:50.523Z,105.05
2022-08-29T05:52:39.187Z,104.43
2022-08-29T05:55:27.493Z,101.78
2022-08-29T05:58:18.421Z,103.28
2022-08-29T06:01:07.121Z,99.50
2022-08-29T06:03:56.182Z,101.90
2022-08-29T06:06:44.691Z,100.53
2022-08-29T06:09:33.369Z,98.28
2022-08-29T06:12:21.837Z,96.68
2022-08-29T06:15:14.313Z,98.00
2022-08-29T06:18:06.187Z,99.45
2022-08-29T06:20:54.537Z,99.05
2022-08-29T06:23:44.577Z,101.05
2022-08-29T06:26:32.992Z,100.43
2022-08-29T06:29:21.307Z,97.35
2022-08-29T06:32:11.085Z,98.10
2022-08-29T06:34:59.534Z,97.00
2022-08-29T06:37:47.966Z,100.63
2022-08-29T06:40:36.444Z,100.85
2022-08-29T06:43:24.825Z,101.28
2022-08-29T06:46:23.528Z,100.28
2022-08-29T06:49:16.059Z,100.45
2022-08-29T06:52:04.844Z,95.32
2022-08-29T06:54:53.203Z,92.18
2022-08-29T06:57:45.514Z,91.65
2022-08-29T07:00:34.086Z,86.13
2022-08-29T07:03:24.157Z,82.63
2022-08-29T07:06:14.980Z,77.28
2022-08-29T07:09:03.459Z,67.63
2022-08-29T07:11:54.012Z,60.20
2022-08-29T07:14:43.575Z,56.03
2022-08-29T07:17:32.369Z,50.63
2022-08-29T07:20:20.826Z,47.70
2022-08-29T07:23:11.157Z,45.10
2022-08-29T07:26:08.379Z,42.28
2022-08-29T07:28:59.626Z,37.97
2022-08-29T07:31:49.052Z,38.38
2022-08-29T07:34:37.480Z,38.13
2022-08-29T07:37:26.025Z,35.83
2022-08-29T07:40:17.833Z,35.30
2022-08-29T07:43:06.430Z,33.15
2022-08-29T07:45:55.702Z,29.48
2022-08-29T07:48:46.554Z,29.48
2022-08-29T07:51:35.510Z,29.55
2022-08-29T07:54:24.421Z,29.83
2022-08-29T07:57:17.712Z,26.23
2022-08-29T08:00:08.804Z,23.92
2022-08-29T08:03:00.637Z,22.98
2022-08-29T08:05:48.914Z,20.50
2022-08-29T08:08:39.917Z,20.67
2022-08-29T08:11:28.510Z,18.02
2022-08-29T08:14:18.758Z,18.15
2022-08-29T08:17:07.210Z,17.30
2022-08-29T08:19:55.671Z,16.85
2022-08-29T08:22:44.086Z,15.95
2022-08-29T08:25:32.386Z,13.80
2022-08-29T08:28:20.919Z,12.32
2022-08-29T08:31:14.113Z,11.50
2022-08-29T08:34:02.808Z,12.43
2022-08-29T08:36:52.229Z,12.40
2022-08-29T08:39:40.936Z,12.80
2022-08-29T08:42:42.724Z,10.60
2022-08-29T08:45:37.675Z,9.95
2022-08-29T08:48:35.142Z,9.45
2022-08-29T08:51:29.943Z,10.80
2022-08-29T08:54:23.265Z,8.90
2022-08-29T08:57:14.204Z,8.23
2022-08-29T09:00:04.214Z,9.30
2022-08-29T09:03:06.745Z,8.23
2022-08-29T09:06:08.685Z,8.40
2022-08-29T09:09:03.192Z,8.23
2022-08-29T09:12:04.837Z,8.20
2022-08-29T09:15:02.534Z,8.50
2022-08-29T09:17:56.307Z,8.10
2022-08-29T09:20:47.250Z,8.10
2022-08-29T09:23:44.249Z,9.00
2022-08-29T09:26:33.285Z,7.65
2022-08-29T09:29:22.027Z,6.95
2022-08-29T09:32:16.518Z,5.97
2022-08-29T09:35:20.420Z,6.85
2022-08-29T09:38:10.793Z,6.47
2022-08-29T09:41:02.064Z,6.57
2022-08-29T09:43:52.594Z,7.55
2022-08-29T09:46:41.021Z,6.93
2022-08-29T09:49:30.681Z,7.13
2022-08-29T09:52:25.997Z,6.82
2022-08-29T09:55:20.855Z,6.00
2022-08-29T09:58:27.868Z,6.53
2022-08-29T10:01:26.966Z,6.85
2022-08-29T10:04:38.120Z,6.53
2022-08-29T10:07:30.024Z,5.80
2022-08-29T10:10:20.759Z,6.00
2022-08-29T10:13:17.006Z,7.32
2022-08-29T10:16:16.700Z,7.57
2022-08-29T10:19:08.054Z,7.18
2022-08-29T10:22:04.020Z,8.68
2022-08-29T10:24:58.567Z,7.60
2022-08-29T10:27:54.247Z,8.38
2022-08-29T10:30:55.668Z,7.57
2022-08-29T10:34:03.767Z,7.82
2022-08-29T10:36:58.035Z,8.27
2022-08-29T10:39:58.594Z,7.38
2022-08-29T10:42:51.354Z,7.10
2022-08-29T10:45:56.520Z,7.35
2022-08-29T10:48:52.736Z,6.65
2022-08-29T10:51:48.662Z,7.22
2022-08-29T10:54:46.775Z,8.30
2022-08-29T10:57:56.424Z,7.57
2022-08-29T11:00:49.038Z,7.18
2022-08-29T11:03:43.867Z,7.30
2022-08-29T11:09:35.426Z,8.30
2022-08-29T11:12:33.426Z,7.72
2022-08-29T11:15:27.611Z,8.68
2022-08-29T11:18:25.611Z,8.02
2022-08-29T11:21:20.441Z,9.45
2022-08-29T11:24:11.237Z,9.80
2022-08-29T11:27:09.378Z,8.88
2022-08-29T11:30:04.646Z,10.10
2022-08-29T11:33:03.997Z,9.60
2022-08-29T11:36:08.946Z,7.75
2022-08-29T11:39:40.302Z,7.00
2022-08-29T11:42:50.157Z,7.38
2022-08-29T11:45:44.399Z,6.85
2022-08-29T11:48:37.754Z,6.95
2022-08-29T11:51:37.293Z,6.13
2022-08-29T11:54:51.538Z,6.70
2022-08-29T11:57:52.591Z,6.35
2022-08-29T12:00:51.353Z,7.00
2022-08-29T12:03:48.826Z,7.35
2022-08-29T12:07:01.196Z,8.35
2022-08-29T12:09:54.623Z,7.75
2022-08-29T12:12:48.169Z,7.93
2022-08-29T12:15:57.822Z,6.60
2022-08-29T12:18:50.854Z,6.90
2022-08-29T12:21:47.314Z,6.40
2022-08-29T12:24:44.235Z,6.80
2022-08-29T12:28:32.286Z,6.93
2022-08-29T12:32:18.702Z,7.55
2022-08-29T12:35:31.836Z,7.05
2022-08-29T12:38:31.583Z,9.00
2022-08-29T12:41:39.216Z,7.95
2022-08-29T12:44:30.265Z,8.98
2022-08-29T12:47:27.716Z,8.88
2022-08-29T12:50:20.346Z,8.50
2022-08-29T12:53:20.144Z,7.85
2022-08-29T12:56:18.827Z,9.40
2022-08-29T12:59:07.442Z,8.38
2022-08-29T13:01:58.253Z,8.38
2022-08-29T13:04:47.939Z,8.68
2022-08-29T13:07:36.305Z,8.75
2022-08-29T13:10:25.477Z,8.15
2022-08-29T13:13:16.810Z,8.35
2022-08-29T13:16:09.725Z,10.57
2022-08-29T13:19:10.833Z,9.20
2022-08-29T13:22:05.559Z,8.98
2022-08-29T13:25:04.007Z,15.60
2022-08-29T13:28:01.599Z,8.02
2022-08-29T13:31:30.679Z,8.55
2022-08-29T13:34:21.203Z,9.35
2022-08-29T13:37:30.219Z,8.65
2022-08-29T13:40:36.859Z,9.25
2022-08-29T13:43:37.590Z,9.52
2022-08-29T13:46:30.434Z,7.70
2022-08-29T13:49:21.594Z,7.93
2022-08-29T13:52:15.277Z,8.60
2022-08-29T13:55:04.442Z,9.60
2022-08-29T13:57:56.026Z,7.85
2022-08-29T14:00:44.863Z,7.38
2022-08-29T14:03:35.098Z,7.13
2022-08-29T14:06:26.080Z,7.70
2022-08-29T14:09:23.008Z,6.93
2022-08-29T14:12:12.642Z,7.13
2022-08-29T14:15:05.386Z,7.03
2022-08-29T14:17:57.765Z,7.70
2022-08-29T14:20:46.622Z,7.60
2022-08-29T14:23:35.631Z,6.68
2022-08-29T14:26:25.690Z,6.47
2022-08-29T14:29:14.474Z,6.97
2022-08-29T14:32:03.529Z,6.82
2022-08-29T14:34:52.506Z,7.35
2022-08-29T14:37:41.974Z,8.23
2022-08-29T14:40:31.164Z,6.35
2022-08-29T14:43:21.551Z,7.10
2022-08-29T14:46:09.935Z,6.43
2022-08-29T14:48:58.614Z,6.95
2022-08-29T14:51:47.021Z,7.45
2022-08-29T14:54:35.509Z,7.10
2022-08-29T14:57:23.966Z,6.82
2022-08-29T15:00:19.984Z,7.80
2022-08-29T15:03:08.491Z,6.18
2022-08-29T15:05:57.011Z,5.97
2022-08-29T15:08:45.459Z,15.77
2022-08-29T15:11:34.060Z,6.72
2022-08-29T15:14:22.507Z,6.55
2022-08-29T15:17:13.689Z,7.55
2022-08-29T15:23:10.683Z,7.97
2022-08-29T15:26:02.794Z,6.97
2022-08-29T15:28:51.448Z,7.07
2022-08-29T15:31:40.299Z,6.30
2022-08-29T15:34:31.445Z,6.88
2022-08-29T15:37:20.301Z,6.07
2022-08-29T15:40:13.122Z,6.95
2022-08-29T15:43:02.156Z,6.75
2022-08-29T15:45:50.618Z,6.60
2022-08-29T15:48:39.334Z,7.65
2022-08-29T15:51:31.388Z,9.88
2022-08-29T15:54:20.346Z,6.18
2022-08-29T15:57:08.959Z,7.80
2022-08-29T15:59:58.648Z,6.05
2022-08-29T16:02:47.915Z,6.10
2022-08-29T16:05:38.356Z,6.45
2022-08-29T16:08:29.733Z,6.45
2022-08-29T16:11:18.418Z,5.85
2022-08-29T16:14:41.093Z,7.53
2022-08-29T16:17:16.196Z,7.90
2022-08-29T16:20:07.649Z,5.72
2022-08-29T16:22:56.476Z,6.32
2022-08-29T16:25:46.421Z,5.22
2022-08-29T16:28:35.109Z,7.30
2022-08-29T16:31:23.758Z,6.28
2022-08-29T16:34:12.304Z,7.20
2022-08-29T16:37:02.765Z,7.45
2022-08-29T16:39:51.420Z,5.82
2022-08-29T16:42:43.210Z,7.50
2022-08-29T16:45:44.371Z,10.35
2022-08-29T16:48:34.533Z,6.00
2022-08-29T16:51:26.539Z,8.48
2022-08-29T16:54:22.180Z,9.13
2022-08-29T16:57:10.791Z,5.85
2022-08-29T17:00:02.043Z,7.55
2022-08-29T17:02:50.750Z,7.22
2022-08-29T17:05:39.435Z,7.00
2022-08-29T17:08:27.282Z,7.57
2022-08-29T17:11:14.558Z,6.85
2022-08-29T17:14:02.050Z,6.15
2022-08-29T17:16:53.945Z,6.78
2022-08-29T17:19:44.724Z,8.48
2022-08-29T17:22:34.338Z,6.75
2022-08-29T17:25:24.854Z,8.00
2022-08-29T17:28:19.042Z,6.30
2022-08-29T17:31:10.552Z,6.35
2022-08-29T17:34:00.748Z,6.95
2022-08-29T17:36:50.264Z,6.45
2022-08-29T17:39:40.131Z,7.20
2022-08-29T17:42:29.032Z,6.60
2022-08-29T17:45:17.911Z,7.80
2022-08-29T17:48:06.374Z,6.75
2022-08-29T17:50:57.389Z,7.70
2022-08-29T17:53:45.959Z,7.38
2022-08-29T17:56:44.443Z,6.40
2022-08-29T17:59:36.032Z,5.20
2022-08-29T18:02:24.470Z,7.70
2022-08-29T18:05:13.737Z,9.23
2022-08-29T18:08:03.686Z,8.75
2022-08-29T18:10:52.313Z,6.47
2022-08-29T18:13:42.025Z,7.07
2022-08-29T18:16:30.409Z,6.13
2022-08-29T18:19:19.238Z,10.60
2022-08-29T18:22:08.013Z,7.25
2022-08-29T18:24:59.005Z,6.90
2022-08-29T18:27:48.537Z,7.30
2022-08-29T18:30:37.266Z,7.63
2022-08-29T18:33:38.744Z,8.15
2022-08-29T18:36:35.556Z,8.27
2022-08-29T18:39:24.077Z,9.00
2022-08-29T18:42:36.792Z,7.35
2022-08-29T18:45:22.747Z,6.97
2022-08-29T18:48:11.064Z,7.78
2022-08-29T18:51:00.601Z,8.25
2022-08-29T18:53:49.252Z,8.13
2022-08-29T18:56:38.016Z,10.25
2022-08-29T18:59:29.652Z,8.77
2022-08-29T19:02:18.230Z,8.93
2022-08-29T19:05:07.666Z,8.77
2022-08-29T19:07:57.622Z,11.48
2022-08-29T19:10:47.616Z,10.80
2022-08-29T19:13:36.720Z,10.57
2022-08-29T19:16:26.530Z,11.23
2022-08-29T19:19:15.095Z,10.02
2022-08-29T19:22:02.592Z,10.43
2022-08-29T19:24:51.090Z,12.10
2022-08-29T19:27:43.611Z,11.32
2022-08-29T19:30:33.388Z,12.90
2022-08-29T19:33:23.590Z,11.50
2022-08-29T19:36:12.450Z,10.73
2022-08-29T19:39:00.914Z,12.30
2022-08-29T19:41:54.657Z,10.40
2022-08-29T19:44:44.172Z,10.98
2022-08-29T19:47:33.355Z,9.65
2022-08-29T19:50:24.907Z,9.65
2022-08-29T19:53:16.985Z,9.07
2022-08-29T19:56:14.737Z,9.38
2022-08-29T19:59:03.294Z,9.52
2022-08-29T20:01:52.114Z,8.73
2022-08-29T20:04:40.513Z,10.45
2022-08-29T20:07:30.533Z,9.18
2022-08-29T20:10:22.911Z,9.57
2022-08-29T20:13:11.245Z,8.82
2022-08-29T20:16:00.610Z,8.48
2022-08-29T20:18:49.380Z,11.13
2022-08-29T20:21:40.069Z,9.07
2022-08-29T20:24:30.573Z,8.77
2022-08-29T20:27:18.934Z,8.82
2022-08-29T20:30:10.028Z,10.73
2022-08-29T20:32:58.604Z,11.45
2022-08-29T20:36:05.423Z,10.35
2022-08-29T20:38:54.373Z,10.57
2022-08-29T20:41:49.184Z,10.70
2022-08-29T20:44:41.853Z,10.52
2022-08-29T20:47:30.673Z,10.07
2022-08-29T20:50:19.091Z,10.90
2022-08-29T20:53:08.468Z,12.85
2022-08-29T20:56:01.290Z,11.57
2022-08-29T20:58:51.067Z,12.52
2022-08-29T21:01:40.453Z,11.85
2022-08-29T21:04:46.590Z,12.93
2022-08-29T21:07:37.779Z,13.30
2022-08-29T21:10:26.250Z,13.07
2022-08-29T21:13:15.266Z,12.80
2022-08-29T21:16:07.448Z,13.15
2022-08-29T21:18:56.346Z,13.15
2022-08-29T21:21:44.737Z,14.48
2022-08-29T21:24:35.882Z,13.77
2022-08-29T21:27:24.551Z,15.07
2022-08-29T21:30:14.515Z,16.10
2022-08-29T21:33:04.814Z,16.50
2022-08-29T21:35:53.167Z,17.48
2022-08-29T21:38:41.600Z,17.52
2022-08-29T21:41:31.561Z,17.35
2022-08-29T21:44:20.217Z,19.20
2022-08-29T21:47:08.712Z,20.17
2022-08-29T21:49:58.569Z,19.88
2022-08-29T21:52:48.419Z,19.35
2022-08-29T21:55:36.712Z,18.95
2022-08-29T21:58:25.120Z,18.20
2022-08-29T22:01:14.096Z,16.80
2022-08-29T22:04:03.493Z,17.40
2022-08-29T22:06:54.164Z,16.63
2022-08-29T22:09:42.501Z,15.90
2022-08-29T22:12:31.464Z,16.67
2022-08-29T22:15:37.641Z,17.92
2022-08-29T22:18:26.180Z,17.75
2022-08-29T22:21:15.559Z,16.20
2022-08-29T22:24:06.878Z,16.92
2022-08-29T22:26:55.266Z,17.63
2022-08-29T22:29:43.862Z,17.05
2022-08-29T22:32:32.348Z,18.73
2022-08-29T22:35:24.756Z,20.58
2022-08-29T22:38:13.212Z,20.13
2022-08-29T22:41:03.014Z,20.90
2022-08-29T22:44:16.619Z,21.43
2022-08-29T22:47:01.303Z,21.97
2022-08-29T22:49:50.721Z,22.93
2022-08-29T22:52:39.099Z,23.60
2022-08-29T22:58:16.170Z,23.97
2022-08-29T23:01:07.140Z,24.97
2022-08-29T23:03:56.899Z,25.03
2022-08-29T23:06:45.525Z,25.40
2022-08-29T23:09:35.061Z,26.67
2022-08-29T23:12:23.924Z,26.07
2022-08-29T23:15:17.330Z,27.03
2022-08-29T23:18:05.675Z,27.10
2022-08-29T23:20:54.372Z,27.30
2022-08-29T23:23:45.314Z,28.20
2022-08-29T23:26:34.588Z,29.83
2022-08-29T23:29:24.046Z,27.80
2022-08-29T23:32:13.680Z,28.07
2022-08-29T23:35:02.065Z,28.93
2022-08-29T23:37:50.386Z,26.70
2022-08-29T23:40:38.780Z,24.77
2022-08-29T23:43:27.938Z,24.43
2022-08-29T23:46:19.268Z,24.87
2022-08-29T23:49:09.054Z,24.53
2022-08-29T23:51:57.683Z,23.43
2022-08-29T23:54:47.868Z,22.40
2022-08-29T23:57:36.380Z,23.83
